createdAt,value
2023-01-06T00:00:00.591Z,0.0
2023-01-06T00:05:00.549Z,0.0
2023-01-06T00:10:00.568Z,0.0
2023-01-06T00:15:00.515Z,0.0
2023-01-06T00:20:00.562Z,0.0
2023-01-06T00:25:00.619Z,0.0
2023-01-06T00:30:00.636Z,0.0
2023-01-06T00:35:00.532Z,0.0
2023-01-06T00:40:00.573Z,0.0
2023-01-06T00:45:00.515Z,0.0
2023-01-06T00:50:00.592Z,0.0
2023-01-06T00:55:00.494Z,0.0
2023-01-06T01:00:00.641Z,0.0
2023-01-06T01:05:00.539Z,0.0
2023-01-06T01:10:00.555Z,0.0
2023-01-06T01:15:00.524Z,0.0
2023-01-06T01:20:00.566Z,0.0
2023-01-06T01:25:00.514Z,0.0
2023-01-06T01:30:00.562Z,0.0
2023-01-06T01:35:00.516Z,0.0
2023-01-06T01:40:00.599Z,0.0
2023-01-06T01:45:00.497Z,0.0
2023-01-06T01:50:00.608Z,0.0
2023-01-06T01:55:00.529Z,0.0
2023-01-06T02:00:00.532Z,0.0
2023-01-06T02:05:00.532Z,2.1
2023-01-06T02:10:00.578Z,0.0
2023-01-06T02:15:00.566Z,0.0
2023-01-06T02:20:00.528Z,0.0
2023-01-06T02:25:00.520Z,0.0
2023-01-06T02:30:00.538Z,0.0
2023-01-06T02:35:00.510Z,0.0
2023-01-06T02:40:00.644Z,0.4
2023-01-06T02:45:00.519Z,0.0
2023-01-06T02:50:00.618Z,0.3
2023-01-06T02:55:00.529Z,0.6
2023-01-06T03:00:00.817Z,1.2
2023-01-06T03:05:00.504Z,0.1
2023-01-06T03:10:00.539Z,2.3
2023-01-06T03:15:00.530Z,3.0
2023-01-06T03:20:00.545Z,0.5
2023-01-06T03:25:00.549Z,0.5
2023-01-06T03:30:00.533Z,0.3
2023-01-06T03:35:00.537Z,0.5
2023-01-06T03:40:00.532Z,2.1
2023-01-06T03:45:00.526Z,1.0
2023-01-06T03:50:00.604Z,3.3
2023-01-06T03:55:00.557Z,1.3
2023-01-06T04:00:00.603Z,2.8
2023-01-06T04:05:00.529Z,1.7
2023-01-06T04:10:00.859Z,2.6
2023-01-06T04:15:00.614Z,1.5
2023-01-06T04:20:00.568Z,3.0
2023-01-06T04:25:00.639Z,3.9
2023-01-06T04:30:00.606Z,6.9
2023-01-06T04:35:00.520Z,3.3
2023-01-06T04:40:00.530Z,4.5
2023-01-06T04:45:00.561Z,3.3
2023-01-06T04:50:00.542Z,3.8
2023-01-06T04:55:00.548Z,4.4
2023-01-06T05:00:00.627Z,2.8
2023-01-06T05:05:01.613Z,1.9
2023-01-06T05:10:00.639Z,5.7
2023-01-06T05:15:00.499Z,2.4
2023-01-06T05:20:00.582Z,3.6
2023-01-06T05:25:00.515Z,2.0
2023-01-06T05:30:00.577Z,2.7
2023-01-06T05:35:00.510Z,3.0
2023-01-06T05:40:00.575Z,3.0
2023-01-06T05:45:00.540Z,3.8
2023-01-06T05:50:00.576Z,1.7
2023-01-06T05:55:00.537Z,4.2
2023-01-06T06:00:00.570Z,3.3
2023-01-06T06:05:00.509Z,3.8
2023-01-06T06:10:00.624Z,3.1
2023-01-06T06:15:00.513Z,2.8
2023-01-06T06:20:00.622Z,7.9
2023-01-06T06:25:00.505Z,2.4
2023-01-06T06:30:00.619Z,1.2
2023-01-06T06:35:00.535Z,3.1
2023-01-06T06:40:00.549Z,5.8
2023-01-06T06:45:00.513Z,7.7
2023-01-06T06:50:00.542Z,5.1
2023-01-06T06:55:00.540Z,2.8
2023-01-06T07:00:03.536Z,3.9
2023-01-06T07:05:00.559Z,7.6
2023-01-06T07:10:00.537Z,5.7
2023-01-06T07:15:00.503Z,7.2
2023-01-06T07:20:00.566Z,4.8
2023-01-06T07:25:00.618Z,4.7
2023-01-06T07:35:00.561Z,5.6
2023-01-06T07:40:00.552Z,5.0
2023-01-06T07:45:00.559Z,2.8
2023-01-06T07:50:00.558Z,7.5
2023-01-06T07:55:00.708Z,5.1
2023-01-06T08:00:00.652Z,5.5
2023-01-06T08:05:00.680Z,4.4
2023-01-06T08:10:00.588Z,3.7
2023-01-06T08:15:00.536Z,5.2
2023-01-06T08:20:00.582Z,4.6
2023-01-06T08:25:00.541Z,2.4
2023-01-06T08:30:00.635Z,4.5
2023-01-06T08:35:00.534Z,5.3
2023-01-06T08:40:00.647Z,5.0
2023-01-06T08:45:00.541Z,5.3
2023-01-06T08:50:00.587Z,6.5
2023-01-06T08:55:00.539Z,5.2
2023-01-06T09:00:00.598Z,2.5
2023-01-06T09:05:00.675Z,6.5
2023-01-06T09:10:00.573Z,3.8
2023-01-06T09:15:00.561Z,3.2
2023-01-06T09:20:00.697Z,4.4
2023-01-06T09:25:00.555Z,6.2
2023-01-06T09:30:00.611Z,2.0
2023-01-06T09:35:00.527Z,4.4
2023-01-06T09:40:00.658Z,2.9
2023-01-06T09:45:00.540Z,1.3
2023-01-06T09:50:00.714Z,5.3
2023-01-06T09:55:00.546Z,4.2
2023-01-06T10:00:00.580Z,4.4
2023-01-06T10:05:00.531Z,3.3
2023-01-06T10:10:00.616Z,2.3
2023-01-06T10:15:00.554Z,1.7
2023-01-06T10:20:00.616Z,6.1
2023-01-06T10:25:00.527Z,4.4
2023-01-06T10:30:00.578Z,4.2
2023-01-06T10:35:00.509Z,3.5
2023-01-06T10:40:00.535Z,3.3
2023-01-06T10:45:00.535Z,1.5
2023-01-06T10:50:00.554Z,3.6
2023-01-06T10:55:00.562Z,3.7
2023-01-06T11:00:00.571Z,2.8
2023-01-06T11:05:00.540Z,3.6
2023-01-06T11:10:00.555Z,2.2
2023-01-06T11:15:00.582Z,3.5
2023-01-06T11:20:00.546Z,3.0
2023-01-06T11:25:00.545Z,4.6
2023-01-06T11:30:00.564Z,4.3
2023-01-06T11:35:02.500Z,5.2
2023-01-06T11:40:11.206Z,3.2
2023-01-06T11:45:00.726Z,3.5
2023-01-06T11:50:00.713Z,1.8
2023-01-06T11:55:00.565Z,1.1
2023-01-06T12:00:00.619Z,2.5
2023-01-06T12:05:00.525Z,5.3
2023-01-06T12:10:00.550Z,3.8
2023-01-06T12:15:02.841Z,5.7
2023-01-06T12:20:00.554Z,6.1
2023-01-06T12:25:00.541Z,8.6
2023-01-06T12:30:00.612Z,8.0
2023-01-06T12:35:00.561Z,7.4
2023-01-06T12:40:00.657Z,6.7
2023-01-06T12:45:00.544Z,7.8
2023-01-06T12:50:00.581Z,7.0
2023-01-06T12:55:00.606Z,8.5
2023-01-06T13:00:00.570Z,5.8
2023-01-06T13:05:00.575Z,4.8
2023-01-06T13:10:00.541Z,8.6
2023-01-06T13:15:00.557Z,8.5
2023-01-06T13:20:00.604Z,7.2
2023-01-06T13:25:00.522Z,6.7
2023-01-06T13:30:00.603Z,6.7
2023-01-06T13:35:00.521Z,8.9
2023-01-06T13:40:00.604Z,10.4
2023-01-06T13:45:00.632Z,9.6
2023-01-06T13:50:00.653Z,10.5
2023-01-06T13:55:00.581Z,8.3
2023-01-06T14:00:00.574Z,14.2
2023-01-06T14:05:00.529Z,10.5
2023-01-06T14:10:00.574Z,10.9
2023-01-06T14:15:00.582Z,7.7
2023-01-06T14:20:02.618Z,9.8
2023-01-06T14:25:00.532Z,7.9
2023-01-06T14:30:00.623Z,8.5
2023-01-06T14:35:00.596Z,6.5
2023-01-06T14:40:00.582Z,9.8
2023-01-06T14:45:00.559Z,9.9
2023-01-06T14:50:00.611Z,8.0
2023-01-06T14:55:00.583Z,6.2
2023-01-06T15:00:00.596Z,4.9
2023-01-06T15:05:00.538Z,8.6
2023-01-06T15:10:01.003Z,5.9
2023-01-06T15:15:00.640Z,5.7
2023-01-06T15:20:00.569Z,7.0
2023-01-06T15:25:00.522Z,7.5
2023-01-06T15:30:00.587Z,8.9
2023-01-06T15:35:00.615Z,7.9
2023-01-06T15:40:00.565Z,6.4
2023-01-06T15:45:00.588Z,8.5
2023-01-06T15:50:00.543Z,11.2
2023-01-06T15:55:00.552Z,6.7
2023-01-06T16:00:00.555Z,9.5
2023-01-06T16:05:01.050Z,6.0
2023-01-06T16:10:00.558Z,6.2
2023-01-06T16:15:00.581Z,6.0
2023-01-06T16:20:00.867Z,5.0
2023-01-06T16:25:00.529Z,4.7
2023-01-06T16:30:00.596Z,3.7
2023-01-06T16:35:00.551Z,4.2
2023-01-06T16:40:00.752Z,2.9
2023-01-06T16:45:00.573Z,5.8
2023-01-06T16:50:01.132Z,3.3
2023-01-06T16:55:00.541Z,5.7
2023-01-06T17:00:00.692Z,6.0
2023-01-06T17:05:00.741Z,8.3
2023-01-06T17:10:00.570Z,6.4
2023-01-06T17:15:00.574Z,5.1
2023-01-06T17:20:00.625Z,5.4
2023-01-06T17:25:00.553Z,2.9
2023-01-06T17:30:00.629Z,2.8
2023-01-06T17:35:00.531Z,3.3
2023-01-06T17:40:00.620Z,2.6
2023-01-06T17:45:00.612Z,3.7
2023-01-06T17:50:00.596Z,3.2
2023-01-06T17:55:00.539Z,2.2
2023-01-06T18:00:00.592Z,3.3
2023-01-06T18:05:00.552Z,3.1
2023-01-06T18:10:00.598Z,1.6
2023-01-06T18:15:00.547Z,1.1
2023-01-06T18:20:00.545Z,2.5
2023-01-06T18:25:00.576Z,0.6
2023-01-06T18:30:00.565Z,0.4
2023-01-06T18:35:00.750Z,0.1
2023-01-06T18:40:00.551Z,0.8
2023-01-06T18:45:00.524Z,0.6
2023-01-06T18:50:02.575Z,0.1
2023-01-06T18:55:00.535Z,0.7
2023-01-06T19:00:00.615Z,0.5
2023-01-06T19:05:00.550Z,0.5
2023-01-06T19:10:00.610Z,1.2
2023-01-06T19:15:00.544Z,2.2
2023-01-06T19:20:00.599Z,0.9
2023-01-06T19:25:00.537Z,3.9
2023-01-06T19:30:00.543Z,3.5
2023-01-06T19:35:00.536Z,2.1
2023-01-06T19:40:02.517Z,3.3
2023-01-06T19:45:00.628Z,5.3
2023-01-06T19:50:00.545Z,2.7
2023-01-06T19:55:00.543Z,2.5
2023-01-06T20:00:00.599Z,2.4
2023-01-06T20:05:00.523Z,4.2
2023-01-06T20:10:00.556Z,2.3
2023-01-06T20:15:00.612Z,2.6
2023-01-06T20:20:00.614Z,1.5
2023-01-06T20:25:00.624Z,0.5
2023-01-06T20:30:00.576Z,1.5
2023-01-06T20:35:00.551Z,0.6
2023-01-06T20:40:02.544Z,1.5
2023-01-06T20:45:00.594Z,1.3
2023-01-06T20:50:00.582Z,1.4
2023-01-06T20:55:00.680Z,1.5
2023-01-06T21:00:00.585Z,1.9
2023-01-06T21:05:00.596Z,0.3
2023-01-06T21:10:00.613Z,0.9
2023-01-06T21:15:00.589Z,1.0
2023-01-06T21:20:00.538Z,0.1
2023-01-06T21:25:00.565Z,0.2
2023-01-06T21:30:00.561Z,0.2
2023-01-06T21:35:00.523Z,0.0
2023-01-06T21:40:00.592Z,0.5
2023-01-06T21:45:00.639Z,0.2
2023-01-06T21:50:00.554Z,0.2
2023-01-06T21:55:00.610Z,0.0
2023-01-06T22:00:00.586Z,0.0
2023-01-06T22:05:00.549Z,0.0
2023-01-06T22:10:00.534Z,0.0
2023-01-06T22:15:00.575Z,0.0
2023-01-06T22:20:00.535Z,0.1
2023-01-06T22:25:00.650Z,0.1
2023-01-06T22:30:00.629Z,0.0
2023-01-06T22:35:00.541Z,0.8
2023-01-06T22:40:00.647Z,0.2
2023-01-06T22:45:00.528Z,0.7
2023-01-06T22:50:00.666Z,0.3
2023-01-06T22:55:00.584Z,0.3
2023-01-06T23:00:00.610Z,0.7
2023-01-06T23:05:00.529Z,1.9
2023-01-06T23:10:00.561Z,1.0
2023-01-06T23:15:00.590Z,0.8
2023-01-06T23:20:00.595Z,0.9
2023-01-06T23:25:00.643Z,1.9
2023-01-06T23:30:00.556Z,3.6
2023-01-06T23:35:00.616Z,1.0
2023-01-06T23:40:00.584Z,2.1
2023-01-06T23:45:00.581Z,1.6
2023-01-06T23:50:00.581Z,0.9
2023-01-06T23:55:00.560Z,2.5
